sensor_id;sensor_type;location;lat;lon;timestamp;pressure;altitude;pressure_sealevel;temperature;humidity
3598;BME280;1813;52.016;8.714;2022-09-09T00:01:32;-16261.94;;;-139.71;68.58
3598;BME280;1813;52.016;8.714;2022-09-09T00:04:15;-16261.94;;;-139.71;68.57
3598;BME280;1813;52.016;8.714;2022-09-09T00:06:57;-16261.94;;;-139.71;68.51
3598;BME280;1813;52.016;8.714;2022-09-09T00:09:38;-16261.94;;;-139.71;68.44
3598;BME280;1813;52.016;8.714;2022-09-09T00:12:13;-16261.94;;;-139.71;68.44
3598;BME280;1813;52.016;8.714;2022-09-09T00:14:51;-16261.94;;;-139.71;68.37
3598;BME280;1813;52.016;8.714;2022-09-09T00:17:33;-16261.94;;;-139.71;68.38
3598;BME280;1813;52.016;8.714;2022-09-09T00:20:12;-16261.94;;;-139.71;68.31
3598;BME280;1813;52.016;8.714;2022-09-09T00:22:49;-16261.94;;;-139.71;68.48
3598;BME280;1813;52.016;8.714;2022-09-09T00:25:29;-16261.94;;;-139.71;68.47
3598;BME280;1813;52.016;8.714;2022-09-09T00:28:13;-16261.94;;;-139.71;68.45
3598;BME280;1813;52.016;8.714;2022-09-09T00:30:48;-16261.94;;;-139.71;68.41
3598;BME280;1813;52.016;8.714;2022-09-09T00:33:23;-16261.94;;;-139.71;68.36
3598;BME280;1813;52.016;8.714;2022-09-09T00:35:58;-16261.94;;;-139.71;68.51
3598;BME280;1813;52.016;8.714;2022-09-09T00:38:34;-16261.94;;;-139.71;68.59
3598;BME280;1813;52.016;8.714;2022-09-09T00:41:10;-16261.94;;;-139.71;68.68
3598;BME280;1813;52.016;8.714;2022-09-09T00:43:47;-16261.94;;;-139.71;68.66
3598;BME280;1813;52.016;8.714;2022-09-09T00:49:35;-16261.94;;;-139.71;68.93
3598;BME280;1813;52.016;8.714;2022-09-09T00:52:22;-16261.94;;;-139.71;68.93
3598;BME280;1813;52.016;8.714;2022-09-09T00:55:04;-16261.94;;;-139.71;68.77
3598;BME280;1813;52.016;8.714;2022-09-09T00:57:38;-16261.94;;;-139.71;68.80
3598;BME280;1813;52.016;8.714;2022-09-09T01:00:21;-16261.94;;;-139.71;68.59
3598;BME280;1813;52.016;8.714;2022-09-09T01:03:05;-16261.94;;;-139.71;68.71
3598;BME280;1813;52.016;8.714;2022-09-09T01:05:46;-16261.94;;;-139.71;68.48
3598;BME280;1813;52.016;8.714;2022-09-09T01:08:37;-16261.94;;;-139.71;68.32
3598;BME280;1813;52.016;8.714;2022-09-09T01:11:17;-16261.94;;;-139.71;68.35
3598;BME280;1813;52.016;8.714;2022-09-09T01:14:00;-16261.94;;;-139.71;68.33
3598;BME280;1813;52.016;8.714;2022-09-09T01:16:38;-16261.94;;;-139.71;68.41
3598;BME280;1813;52.016;8.714;2022-09-09T01:19:18;-16261.94;;;-139.71;68.49
3598;BME280;1813;52.016;8.714;2022-09-09T01:21:59;-16261.94;;;-139.71;68.90
3598;BME280;1813;52.016;8.714;2022-09-09T01:24:40;-16261.94;;;-139.71;69.03
3598;BME280;1813;52.016;8.714;2022-09-09T01:27:25;-16261.94;;;-139.71;69.35
3598;BME280;1813;52.016;8.714;2022-09-09T01:29:57;-16261.94;;;-139.71;69.55
3598;BME280;1813;52.016;8.714;2022-09-09T01:32:40;-16261.94;;;-139.71;69.68
3598;BME280;1813;52.016;8.714;2022-09-09T01:35:22;-16261.94;;;-139.71;69.99
3598;BME280;1813;52.016;8.714;2022-09-09T01:38:00;-16261.94;;;-139.71;70.30
3598;BME280;1813;52.016;8.714;2022-09-09T01:40:32;-16261.94;;;-139.71;70.71
3598;BME280;1813;52.016;8.714;2022-09-09T01:43:06;-16261.94;;;-139.71;70.97
3598;BME280;1813;52.016;8.714;2022-09-09T01:45:40;-16261.94;;;-139.71;71.19
3598;BME280;1813;52.016;8.714;2022-09-09T01:48:14;-16261.94;;;-139.71;71.42
3598;BME280;1813;52.016;8.714;2022-09-09T01:51:08;-16261.94;;;-139.71;71.62
3598;BME280;1813;52.016;8.714;2022-09-09T01:53:41;-16261.94;;;-139.71;71.88
3598;BME280;1813;52.016;8.714;2022-09-09T01:56:25;-16261.94;;;-139.71;71.70
3598;BME280;1813;52.016;8.714;2022-09-09T01:59:18;-16261.94;;;-139.71;71.69
3598;BME280;1813;52.016;8.714;2022-09-09T02:02:08;-16261.94;;;-139.71;71.72
3598;BME280;1813;52.016;8.714;2022-09-09T02:04:47;-16261.94;;;-139.71;71.59
3598;BME280;1813;52.016;8.714;2022-09-09T02:07:34;-16261.94;;;-139.71;71.41
3598;BME280;1813;52.016;8.714;2022-09-09T02:10:19;-16261.94;;;-139.71;71.43
3598;BME280;1813;52.016;8.714;2022-09-09T02:13:04;-16261.94;;;-139.71;71.21
3598;BME280;1813;52.016;8.714;2022-09-09T02:15:44;-16261.94;;;-139.71;71.00
3598;BME280;1813;52.016;8.714;2022-09-09T02:18:27;-16261.94;;;-139.71;70.87
3598;BME280;1813;52.016;8.714;2022-09-09T02:21:02;-16261.94;;;-139.71;70.63
3598;BME280;1813;52.016;8.714;2022-09-09T02:23:35;-16261.94;;;-139.71;70.75
3598;BME280;1813;52.016;8.714;2022-09-09T02:26:13;-16261.94;;;-139.71;70.74
3598;BME280;1813;52.016;8.714;2022-09-09T02:28:54;-16261.94;;;-139.71;70.82
3598;BME280;1813;52.016;8.714;2022-09-09T02:31:30;-16261.94;;;-139.71;71.00
3598;BME280;1813;52.016;8.714;2022-09-09T02:34:09;-16261.94;;;-139.71;71.21
3598;BME280;1813;52.016;8.714;2022-09-09T02:36:43;-16261.94;;;-139.71;71.45
3598;BME280;1813;52.016;8.714;2022-09-09T02:39:18;-16261.94;;;-139.71;71.76
3598;BME280;1813;52.016;8.714;2022-09-09T02:41:52;-16261.94;;;-139.71;71.90
3598;BME280;1813;52.016;8.714;2022-09-09T02:44:32;-16261.94;;;-139.71;72.13
3598;BME280;1813;52.016;8.714;2022-09-09T02:47:20;-16261.94;;;-139.71;71.99
3598;BME280;1813;52.016;8.714;2022-09-09T02:50:04;-16261.94;;;-139.71;71.92
3598;BME280;1813;52.016;8.714;2022-09-09T02:52:45;-16261.94;;;-139.71;71.79
3598;BME280;1813;52.016;8.714;2022-09-09T02:55:24;-16261.94;;;-139.71;71.75
3598;BME280;1813;52.016;8.714;2022-09-09T02:58:04;-16261.94;;;-139.71;71.99
3598;BME280;1813;52.016;8.714;2022-09-09T03:00:39;-16261.94;;;-139.71;72.05
3598;BME280;1813;52.016;8.714;2022-09-09T03:03:13;-16261.94;;;-139.71;72.19
3598;BME280;1813;52.016;8.714;2022-09-09T03:05:47;-16261.94;;;-139.71;72.56
3598;BME280;1813;52.016;8.714;2022-09-09T03:08:19;-16261.94;;;-139.71;72.60
3598;BME280;1813;52.016;8.714;2022-09-09T03:10:53;-16261.94;;;-139.71;72.73
3598;BME280;1813;52.016;8.714;2022-09-09T03:13:26;-16261.94;;;-139.71;72.75
3598;BME280;1813;52.016;8.714;2022-09-09T03:15:58;-16261.94;;;-139.71;72.77
3598;BME280;1813;52.016;8.714;2022-09-09T03:18:33;-16261.94;;;-139.71;72.64
3598;BME280;1813;52.016;8.714;2022-09-09T03:21:05;-16261.94;;;-139.71;72.39
3598;BME280;1813;52.016;8.714;2022-09-09T03:23:38;-16261.94;;;-139.71;72.17
3598;BME280;1813;52.016;8.714;2022-09-09T03:26:10;-16261.94;;;-139.71;72.17
3598;BME280;1813;52.016;8.714;2022-09-09T03:28:47;-16261.94;;;-139.71;72.37
3598;BME280;1813;52.016;8.714;2022-09-09T03:31:24;-16261.94;;;-139.71;72.45
3598;BME280;1813;52.016;8.714;2022-09-09T03:33:58;-16261.94;;;-139.71;72.73
3598;BME280;1813;52.016;8.714;2022-09-09T03:36:34;-16261.94;;;-139.71;72.93
3598;BME280;1813;52.016;8.714;2022-09-09T03:39:06;-16261.94;;;-139.71;73.05
3598;BME280;1813;52.016;8.714;2022-09-09T03:41:38;-16261.94;;;-139.71;72.86
3598;BME280;1813;52.016;8.714;2022-09-09T03:44:11;-16261.94;;;-139.71;73.07
3598;BME280;1813;52.016;8.714;2022-09-09T03:46:45;-16261.94;;;-139.71;73.04
3598;BME280;1813;52.016;8.714;2022-09-09T03:49:19;-16261.94;;;-139.71;72.93
3598;BME280;1813;52.016;8.714;2022-09-09T03:51:52;-16261.94;;;-139.71;72.90
3598;BME280;1813;52.016;8.714;2022-09-09T03:54:25;-16261.94;;;-139.71;72.75
3598;BME280;1813;52.016;8.714;2022-09-09T03:56:58;-16261.94;;;-139.71;72.48
3598;BME280;1813;52.016;8.714;2022-09-09T03:59:31;-16261.94;;;-139.71;72.49
3598;BME280;1813;52.016;8.714;2022-09-09T04:02:03;-16261.94;;;-139.71;72.38
3598;BME280;1813;52.016;8.714;2022-09-09T04:04:37;-16261.94;;;-139.71;72.49
3598;BME280;1813;52.016;8.714;2022-09-09T04:07:09;-16261.94;;;-139.71;72.20
3598;BME280;1813;52.016;8.714;2022-09-09T04:09:44;-16261.94;;;-139.71;71.93
3598;BME280;1813;52.016;8.714;2022-09-09T04:12:18;-16261.94;;;-139.71;71.73
3598;BME280;1813;52.016;8.714;2022-09-09T04:14:50;-16261.94;;;-139.71;71.92
3598;BME280;1813;52.016;8.714;2022-09-09T04:17:22;-16261.94;;;-139.71;72.22
3598;BME280;1813;52.016;8.714;2022-09-09T04:19:56;-16261.94;;;-139.71;72.48
3598;BME280;1813;52.016;8.714;2022-09-09T04:22:28;-16261.94;;;-139.71;72.74
3598;BME280;1813;52.016;8.714;2022-09-09T04:25:00;-16261.94;;;-139.71;72.73
3598;BME280;1813;52.016;8.714;2022-09-09T04:27:34;-16261.94;;;-139.71;72.67
3598;BME280;1813;52.016;8.714;2022-09-09T04:30:08;-16261.94;;;-139.71;72.57
3598;BME280;1813;52.016;8.714;2022-09-09T04:32:41;-16261.94;;;-139.71;72.76
3598;BME280;1813;52.016;8.714;2022-09-09T04:35:15;-16261.94;;;-139.71;72.56
3598;BME280;1813;52.016;8.714;2022-09-09T04:37:47;-16261.94;;;-139.71;72.68
3598;BME280;1813;52.016;8.714;2022-09-09T04:40:19;-16261.94;;;-139.71;72.87
3598;BME280;1813;52.016;8.714;2022-09-09T04:42:52;-16261.94;;;-139.71;73.19
3598;BME280;1813;52.016;8.714;2022-09-09T04:45:25;-16261.94;;;-139.71;73.48
3598;BME280;1813;52.016;8.714;2022-09-09T04:47:57;-16261.94;;;-139.71;73.77
3598;BME280;1813;52.016;8.714;2022-09-09T04:50:31;-16261.94;;;-139.71;74.32
3598;BME280;1813;52.016;8.714;2022-09-09T04:53:04;-16261.94;;;-139.71;74.71
3598;BME280;1813;52.016;8.714;2022-09-09T04:55:36;-16261.94;;;-139.71;75.10
3598;BME280;1813;52.016;8.714;2022-09-09T04:58:09;-16261.94;;;-139.71;75.68
3598;BME280;1813;52.016;8.714;2022-09-09T05:00:41;-16261.94;;;-139.71;75.88
3598;BME280;1813;52.016;8.714;2022-09-09T05:03:13;-16261.94;;;-139.71;76.03
3598;BME280;1813;52.016;8.714;2022-09-09T05:05:46;-16261.94;;;-139.71;76.08
3598;BME280;1813;52.016;8.714;2022-09-09T05:08:19;-16261.94;;;-139.71;76.41
3598;BME280;1813;52.016;8.714;2022-09-09T05:10:52;-16261.94;;;-139.71;76.46
3598;BME280;1813;52.016;8.714;2022-09-09T05:13:25;-16261.94;;;-139.71;76.40
3598;BME280;1813;52.016;8.714;2022-09-09T05:15:58;-16261.94;;;-139.71;76.58
3598;BME280;1813;52.016;8.714;2022-09-09T05:18:31;-16261.94;;;-139.71;76.60
3598;BME280;1813;52.016;8.714;2022-09-09T05:21:05;-16261.94;;;-139.71;76.86
3598;BME280;1813;52.016;8.714;2022-09-09T05:23:38;-16261.94;;;-139.71;76.95
3598;BME280;1813;52.016;8.714;2022-09-09T05:26:12;-16261.94;;;-139.71;76.95
3598;BME280;1813;52.016;8.714;2022-09-09T05:28:46;-16261.94;;;-139.71;77.29
3598;BME280;1813;52.016;8.714;2022-09-09T05:31:19;-16261.94;;;-139.71;77.56
3598;BME280;1813;52.016;8.714;2022-09-09T05:33:54;-16261.94;;;-139.71;77.64
3598;BME280;1813;52.016;8.714;2022-09-09T05:36:27;-16261.94;;;-139.71;77.91
3598;BME280;1813;52.016;8.714;2022-09-09T05:39:01;-16261.94;;;-139.71;77.74
3598;BME280;1813;52.016;8.714;2022-09-09T05:41:35;-16261.94;;;-139.71;78.00
3598;BME280;1813;52.016;8.714;2022-09-09T05:44:08;-16261.94;;;-139.71;78.20
3598;BME280;1813;52.016;8.714;2022-09-09T05:46:43;-16261.94;;;-139.71;78.31
3598;BME280;1813;52.016;8.714;2022-09-09T05:49:16;-16261.94;;;-139.71;78.64
3598;BME280;1813;52.016;8.714;2022-09-09T05:51:50;-16261.94;;;-139.71;78.23
3598;BME280;1813;52.016;8.714;2022-09-09T05:54:24;-16261.94;;;-139.71;78.51
3598;BME280;1813;52.016;8.714;2022-09-09T05:56:59;-16261.94;;;-139.71;78.67
3598;BME280;1813;52.016;8.714;2022-09-09T05:59:31;-16261.94;;;-139.71;78.60
3598;BME280;1813;52.016;8.714;2022-09-09T06:02:04;-16261.94;;;-139.71;78.81
3598;BME280;1813;52.016;8.714;2022-09-09T06:04:40;-16261.94;;;-139.71;78.47
3598;BME280;1813;52.016;8.714;2022-09-09T06:07:13;-16261.94;;;-139.71;77.98
3598;BME280;1813;52.016;8.714;2022-09-09T06:09:46;-16261.94;;;-139.71;77.70
3598;BME280;1813;52.016;8.714;2022-09-09T06:12:18;-16261.94;;;-139.71;77.71
3598;BME280;1813;52.016;8.714;2022-09-09T06:14:51;-16261.94;;;-139.71;77.25
3598;BME280;1813;52.016;8.714;2022-09-09T06:17:23;-16261.94;;;-139.71;77.02
3598;BME280;1813;52.016;8.714;2022-09-09T06:19:56;-16261.94;;;-139.71;76.32
3598;BME280;1813;52.016;8.714;2022-09-09T06:22:29;-16261.94;;;-139.71;76.32
3598;BME280;1813;52.016;8.714;2022-09-09T06:25:01;-16261.94;;;-139.71;76.07
3598;BME280;1813;52.016;8.714;2022-09-09T06:27:33;-16261.94;;;-139.71;75.39
3598;BME280;1813;52.016;8.714;2022-09-09T06:30:06;-16261.94;;;-139.71;74.32
3598;BME280;1813;52.016;8.714;2022-09-09T06:32:41;-16261.94;;;-139.71;74.36
3598;BME280;1813;52.016;8.714;2022-09-09T06:35:14;-16261.94;;;-139.71;73.96
3598;BME280;1813;52.016;8.714;2022-09-09T06:37:47;-16261.94;;;-139.71;73.83
3598;BME280;1813;52.016;8.714;2022-09-09T06:40:21;-16261.94;;;-139.71;73.70
3598;BME280;1813;52.016;8.714;2022-09-09T06:42:53;-16261.94;;;-139.71;73.73
3598;BME280;1813;52.016;8.714;2022-09-09T06:45:37;-16261.94;;;-139.71;73.52
3598;BME280;1813;52.016;8.714;2022-09-09T06:48:09;-16261.94;;;-139.71;73.70
3598;BME280;1813;52.016;8.714;2022-09-09T06:50:42;-16261.94;;;-139.71;73.43
3598;BME280;1813;52.016;8.714;2022-09-09T06:53:17;-16261.94;;;-139.71;73.76
3598;BME280;1813;52.016;8.714;2022-09-09T06:55:50;-16261.94;;;-139.71;73.46
3598;BME280;1813;52.016;8.714;2022-09-09T06:58:22;-16261.94;;;-139.71;73.07
3598;BME280;1813;52.016;8.714;2022-09-09T07:01:02;-16261.94;;;-139.71;72.18
3598;BME280;1813;52.016;8.714;2022-09-09T07:03:34;-16261.94;;;-139.71;71.75
3598;BME280;1813;52.016;8.714;2022-09-09T07:06:07;-16261.94;;;-139.71;71.61
3598;BME280;1813;52.016;8.714;2022-09-09T07:08:41;-16261.94;;;-139.71;70.75
3598;BME280;1813;52.016;8.714;2022-09-09T07:11:13;-16261.94;;;-139.71;70.97
3598;BME280;1813;52.016;8.714;2022-09-09T07:13:46;-16261.94;;;-139.71;71.39
3598;BME280;1813;52.016;8.714;2022-09-09T07:16:20;-16261.94;;;-139.71;71.38
3598;BME280;1813;52.016;8.714;2022-09-09T07:18:54;-16261.94;;;-139.71;71.54
3598;BME280;1813;52.016;8.714;2022-09-09T07:21:29;-16261.94;;;-139.71;71.28
3598;BME280;1813;52.016;8.714;2022-09-09T07:24:04;-16261.94;;;-139.71;71.82
3598;BME280;1813;52.016;8.714;2022-09-09T07:26:39;-16261.94;;;-139.71;71.98
3598;BME280;1813;52.016;8.714;2022-09-09T07:29:11;-16261.94;;;-139.71;72.28
3598;BME280;1813;52.016;8.714;2022-09-09T07:31:46;-16261.94;;;-139.71;71.49
3598;BME280;1813;52.016;8.714;2022-09-09T07:34:22;-16261.94;;;-139.71;71.79
3598;BME280;1813;52.016;8.714;2022-09-09T07:36:55;-16261.94;;;-139.71;71.82
3598;BME280;1813;52.016;8.714;2022-09-09T07:39:29;-16261.94;;;-139.71;71.85
3598;BME280;1813;52.016;8.714;2022-09-09T07:42:01;-16261.94;;;-139.71;71.44
3598;BME280;1813;52.016;8.714;2022-09-09T07:44:35;-16261.94;;;-139.71;71.54
3598;BME280;1813;52.016;8.714;2022-09-09T07:47:15;-16261.94;;;-139.71;71.74
3598;BME280;1813;52.016;8.714;2022-09-09T07:49:51;-16261.94;;;-139.71;71.77
3598;BME280;1813;52.016;8.714;2022-09-09T07:52:29;-16261.94;;;-139.71;72.33
3598;BME280;1813;52.016;8.714;2022-09-09T07:55:06;-16261.94;;;-139.71;72.13
3598;BME280;1813;52.016;8.714;2022-09-09T07:57:40;-16261.94;;;-139.71;71.91
3598;BME280;1813;52.016;8.714;2022-09-09T08:00:14;-16261.94;;;-139.71;71.81
3598;BME280;1813;52.016;8.714;2022-09-09T08:02:50;-16261.94;;;-139.71;71.36
3598;BME280;1813;52.016;8.714;2022-09-09T08:05:22;-16261.94;;;-139.71;71.56
3598;BME280;1813;52.016;8.714;2022-09-09T08:07:55;-16261.94;;;-139.71;72.12
3598;BME280;1813;52.016;8.714;2022-09-09T08:10:29;-16261.94;;;-139.71;70.99
3598;BME280;1813;52.016;8.714;2022-09-09T08:13:01;-16261.94;;;-139.71;70.68
3598;BME280;1813;52.016;8.714;2022-09-09T08:15:33;-16261.94;;;-139.71;70.60
3598;BME280;1813;52.016;8.714;2022-09-09T08:18:05;-16261.94;;;-139.71;70.84
3598;BME280;1813;52.016;8.714;2022-09-09T08:20:38;-16261.94;;;-139.71;70.60
3598;BME280;1813;52.016;8.714;2022-09-09T08:23:10;-16261.94;;;-139.71;70.19
3598;BME280;1813;52.016;8.714;2022-09-09T08:25:44;-16261.94;;;-139.71;69.31
3598;BME280;1813;52.016;8.714;2022-09-09T08:28:16;-16261.94;;;-139.71;69.30
3598;BME280;1813;52.016;8.714;2022-09-09T08:30:49;-16261.94;;;-139.71;68.38
3598;BME280;1813;52.016;8.714;2022-09-09T08:33:21;-16261.94;;;-139.71;67.60
3598;BME280;1813;52.016;8.714;2022-09-09T08:35:54;-16261.94;;;-139.71;65.20
3598;BME280;1813;52.016;8.714;2022-09-09T08:38:27;-16261.94;;;-139.71;64.71
3598;BME280;1813;52.016;8.714;2022-09-09T08:41:15;-16261.94;;;-139.71;65.54
3598;BME280;1813;52.016;8.714;2022-09-09T08:43:50;-16261.94;;;-139.71;63.76
3598;BME280;1813;52.016;8.714;2022-09-09T08:46:26;-16261.94;;;-139.71;64.28
3598;BME280;1813;52.016;8.714;2022-09-09T08:49:06;-16261.94;;;-139.71;64.44
3598;BME280;1813;52.016;8.714;2022-09-09T08:51:46;-16261.94;;;-139.71;63.01
3598;BME280;1813;52.016;8.714;2022-09-09T08:54:21;-16261.94;;;-139.71;60.58
3598;BME280;1813;52.016;8.714;2022-09-09T08:56:55;-16261.94;;;-139.71;59.35
3598;BME280;1813;52.016;8.714;2022-09-09T08:59:28;-16261.94;;;-139.71;58.52
3598;BME280;1813;52.016;8.714;2022-09-09T09:02:06;-16261.94;;;-139.71;58.96
3598;BME280;1813;52.016;8.714;2022-09-09T09:04:59;-16261.94;;;-139.71;56.64
3598;BME280;1813;52.016;8.714;2022-09-09T09:07:47;-16261.94;;;-139.71;56.33
3598;BME280;1813;52.016;8.714;2022-09-09T09:10:39;-16261.94;;;-139.71;57.46
3598;BME280;1813;52.016;8.714;2022-09-09T09:13:21;-16261.94;;;-139.71;57.44
3598;BME280;1813;52.016;8.714;2022-09-09T09:16:00;-16261.94;;;-139.71;57.63
3598;BME280;1813;52.016;8.714;2022-09-09T09:18:34;-16261.94;;;-139.71;57.85
3598;BME280;1813;52.016;8.714;2022-09-09T09:21:13;-16261.94;;;-139.71;58.64
3598;BME280;1813;52.016;8.714;2022-09-09T09:23:54;-16261.94;;;-139.71;57.44
3598;BME280;1813;52.016;8.714;2022-09-09T09:26:31;-16261.94;;;-139.71;57.99
3598;BME280;1813;52.016;8.714;2022-09-09T09:29:11;-16261.94;;;-139.71;57.32
3598;BME280;1813;52.016;8.714;2022-09-09T09:31:48;-16261.94;;;-139.71;56.01
3598;BME280;1813;52.016;8.714;2022-09-09T09:34:23;-16261.94;;;-139.71;57.03
3598;BME280;1813;52.016;8.714;2022-09-09T09:36:57;-16261.94;;;-139.71;57.12
3598;BME280;1813;52.016;8.714;2022-09-09T09:39:35;-16261.94;;;-139.71;54.88
3598;BME280;1813;52.016;8.714;2022-09-09T09:42:10;-16261.94;;;-139.71;53.43
3598;BME280;1813;52.016;8.714;2022-09-09T09:44:46;-16261.94;;;-139.71;53.88
3598;BME280;1813;52.016;8.714;2022-09-09T09:47:22;-16261.94;;;-139.71;54.27
3598;BME280;1813;52.016;8.714;2022-09-09T09:50:04;-16261.94;;;-139.71;54.15
3598;BME280;1813;52.016;8.714;2022-09-09T09:52:42;-16261.94;;;-139.71;54.19
3598;BME280;1813;52.016;8.714;2022-09-09T09:55:15;-16261.94;;;-139.71;55.24
3598;BME280;1813;52.016;8.714;2022-09-09T09:57:50;-16261.94;;;-139.71;55.09
3598;BME280;1813;52.016;8.714;2022-09-09T10:00:24;-16261.94;;;-139.71;55.68
3598;BME280;1813;52.016;8.714;2022-09-09T10:03:21;-16261.94;;;-139.71;56.08
3598;BME280;1813;52.016;8.714;2022-09-09T10:05:55;-16261.94;;;-139.71;56.14
3598;BME280;1813;52.016;8.714;2022-09-09T10:08:28;-16261.94;;;-139.71;55.72
3598;BME280;1813;52.016;8.714;2022-09-09T10:11:07;-16261.94;;;-139.71;56.49
3598;BME280;1813;52.016;8.714;2022-09-09T10:13:51;-16261.94;;;-139.71;57.48
3598;BME280;1813;52.016;8.714;2022-09-09T10:16:45;-16261.94;;;-139.71;57.44
3598;BME280;1813;52.016;8.714;2022-09-09T10:19:29;-16261.94;;;-139.71;57.61
3598;BME280;1813;52.016;8.714;2022-09-09T10:22:21;-16261.94;;;-139.71;59.33
3598;BME280;1813;52.016;8.714;2022-09-09T10:25:23;-16261.94;;;-139.71;58.96
3598;BME280;1813;52.016;8.714;2022-09-09T10:28:15;-16261.94;;;-139.71;56.64
3598;BME280;1813;52.016;8.714;2022-09-09T10:30:56;-16261.94;;;-139.71;55.00
3598;BME280;1813;52.016;8.714;2022-09-09T10:33:46;-16261.94;;;-139.71;54.47
3598;BME280;1813;52.016;8.714;2022-09-09T10:36:22;-16261.94;;;-139.71;53.21
3598;BME280;1813;52.016;8.714;2022-09-09T10:38:59;-16261.94;;;-139.71;51.67
3598;BME280;1813;52.016;8.714;2022-09-09T10:41:42;-16261.94;;;-139.71;51.70
3598;BME280;1813;52.016;8.714;2022-09-09T10:44:35;-16261.94;;;-139.71;50.75
3598;BME280;1813;52.016;8.714;2022-09-09T10:47:21;-16261.94;;;-139.71;49.77
3598;BME280;1813;52.016;8.714;2022-09-09T10:50:12;-16261.94;;;-139.71;47.44
3598;BME280;1813;52.016;8.714;2022-09-09T10:52:57;-16261.94;;;-139.71;47.26
3598;BME280;1813;52.016;8.714;2022-09-09T10:55:35;-16261.94;;;-139.71;47.52
3598;BME280;1813;52.016;8.714;2022-09-09T10:58:16;-16261.94;;;-139.71;49.94
3598;BME280;1813;52.016;8.714;2022-09-09T11:00:53;-16261.94;;;-139.71;48.52
3598;BME280;1813;52.016;8.714;2022-09-09T11:03:27;-16261.94;;;-139.71;47.27
3598;BME280;1813;52.016;8.714;2022-09-09T11:06:05;-16261.94;;;-139.71;47.13
3598;BME280;1813;52.016;8.714;2022-09-09T11:08:39;-16261.94;;;-139.71;47.08
3598;BME280;1813;52.016;8.714;2022-09-09T11:11:15;-16261.94;;;-139.71;46.32
3598;BME280;1813;52.016;8.714;2022-09-09T11:13:54;-16261.94;;;-139.71;47.47
3598;BME280;1813;52.016;8.714;2022-09-09T11:16:30;-16261.94;;;-139.71;47.94
3598;BME280;1813;52.016;8.714;2022-09-09T11:19:15;-16261.94;;;-139.71;47.14
3598;BME280;1813;52.016;8.714;2022-09-09T11:21:52;-16261.94;;;-139.71;47.59
3598;BME280;1813;52.016;8.714;2022-09-09T11:24:29;-16261.94;;;-139.71;46.60
3598;BME280;1813;52.016;8.714;2022-09-09T11:27:08;-16261.94;;;-139.71;45.57
3598;BME280;1813;52.016;8.714;2022-09-09T11:30:02;-16261.94;;;-139.71;45.41
3598;BME280;1813;52.016;8.714;2022-09-09T11:32:50;-16261.94;;;-139.71;44.94
3598;BME280;1813;52.016;8.714;2022-09-09T11:35:33;-16261.94;;;-139.71;44.81
3598;BME280;1813;52.016;8.714;2022-09-09T11:38:16;-16261.94;;;-139.71;45.79
3598;BME280;1813;52.016;8.714;2022-09-09T11:40:55;-16261.94;;;-139.71;46.71
3598;BME280;1813;52.016;8.714;2022-09-09T11:43:31;-16261.94;;;-139.71;45.12
3598;BME280;1813;52.016;8.714;2022-09-09T11:46:06;-16261.94;;;-139.71;43.50
3598;BME280;1813;52.016;8.714;2022-09-09T11:48:39;-16261.94;;;-139.71;45.09
3598;BME280;1813;52.016;8.714;2022-09-09T11:51:27;-16261.94;;;-139.71;43.72
3598;BME280;1813;52.016;8.714;2022-09-09T11:54:29;-16261.94;;;-139.71;44.25
3598;BME280;1813;52.016;8.714;2022-09-09T11:56:55;-16261.94;;;-139.71;44.60
3598;BME280;1813;52.016;8.714;2022-09-09T11:59:29;-16261.94;;;-139.71;44.98
3598;BME280;1813;52.016;8.714;2022-09-09T12:02:09;-16261.94;;;-139.71;44.87
3598;BME280;1813;52.016;8.714;2022-09-09T12:04:49;-16261.94;;;-139.71;45.12
3598;BME280;1813;52.016;8.714;2022-09-09T12:07:31;-16261.94;;;-139.71;45.79
3598;BME280;1813;52.016;8.714;2022-09-09T12:10:24;-16261.94;;;-139.71;46.12
3598;BME280;1813;52.016;8.714;2022-09-09T12:13:08;-16261.94;;;-139.71;46.81
3598;BME280;1813;52.016;8.714;2022-09-09T12:15:47;-16261.94;;;-139.71;47.95
3598;BME280;1813;52.016;8.714;2022-09-09T12:18:23;-16261.94;;;-139.71;46.05
3598;BME280;1813;52.016;8.714;2022-09-09T12:21:02;-16261.94;;;-139.71;47.23
3598;BME280;1813;52.016;8.714;2022-09-09T12:23:46;-16261.94;;;-139.71;46.62
3598;BME280;1813;52.016;8.714;2022-09-09T12:26:31;-16261.94;;;-139.71;46.31
3598;BME280;1813;52.016;8.714;2022-09-09T12:29:14;-16261.94;;;-139.71;47.15
3598;BME280;1813;52.016;8.714;2022-09-09T12:31:55;-16261.94;;;-139.71;45.82
3598;BME280;1813;52.016;8.714;2022-09-09T12:34:35;-16261.94;;;-139.71;43.72
3598;BME280;1813;52.016;8.714;2022-09-09T12:37:18;-16261.94;;;-139.71;42.62
3598;BME280;1813;52.016;8.714;2022-09-09T12:39:55;-16261.94;;;-139.71;42.02
3598;BME280;1813;52.016;8.714;2022-09-09T12:42:29;-16261.94;;;-139.71;41.02
3598;BME280;1813;52.016;8.714;2022-09-09T12:45:15;-16261.94;;;-139.71;40.61
3598;BME280;1813;52.016;8.714;2022-09-09T12:47:50;-16261.94;;;-139.71;39.83
3598;BME280;1813;52.016;8.714;2022-09-09T12:50:26;-16261.94;;;-139.71;39.66
3598;BME280;1813;52.016;8.714;2022-09-09T12:53:04;-16261.94;;;-139.71;39.71
3598;BME280;1813;52.016;8.714;2022-09-09T12:55:39;-16261.94;;;-139.71;40.25
3598;BME280;1813;52.016;8.714;2022-09-09T12:58:13;-16261.94;;;-139.71;41.22
3598;BME280;1813;52.016;8.714;2022-09-09T13:00:50;-16261.94;;;-139.71;39.97
3598;BME280;1813;52.016;8.714;2022-09-09T13:03:24;-16261.94;;;-139.71;39.93
3598;BME280;1813;52.016;8.714;2022-09-09T13:05:58;-16261.94;;;-139.71;40.14
3598;BME280;1813;52.016;8.714;2022-09-09T13:08:32;-16261.94;;;-139.71;41.56
3598;BME280;1813;52.016;8.714;2022-09-09T13:11:07;-16261.94;;;-139.71;41.69
3598;BME280;1813;52.016;8.714;2022-09-09T13:13:43;-16261.94;;;-139.71;42.38
3598;BME280;1813;52.016;8.714;2022-09-09T13:16:24;-16261.94;;;-139.71;41.63
3598;BME280;1813;52.016;8.714;2022-09-09T13:18:58;-16261.94;;;-139.71;41.32
3598;BME280;1813;52.016;8.714;2022-09-09T13:21:33;-16261.94;;;-139.71;39.90
3598;BME280;1813;52.016;8.714;2022-09-09T13:24:07;-16261.94;;;-139.71;40.71
3598;BME280;1813;52.016;8.714;2022-09-09T13:26:55;-16261.94;;;-139.71;40.73
3598;BME280;1813;52.016;8.714;2022-09-09T13:29:30;-16261.94;;;-139.71;40.40
3598;BME280;1813;52.016;8.714;2022-09-09T13:32:06;-16261.94;;;-139.71;40.78
3598;BME280;1813;52.016;8.714;2022-09-09T13:34:38;-16261.94;;;-139.71;41.34
3598;BME280;1813;52.016;8.714;2022-09-09T13:37:21;-16261.94;;;-139.71;41.97
3598;BME280;1813;52.016;8.714;2022-09-09T13:39:55;-16261.94;;;-139.71;41.86
3598;BME280;1813;52.016;8.714;2022-09-09T13:42:31;-16261.94;;;-139.71;42.33
3598;BME280;1813;52.016;8.714;2022-09-09T13:45:16;-16261.94;;;-139.71;42.52